Time;durP1;ratioP1;P1;durP2;ratioP2;P2;SDS_P1;SDS_P2;PMS_P1;PMS_P2;Temp;Humidity;BMP_temperature;BMP_pressure;BME280_temperature;BME280_humidity;BME280_pressure;Samples;Min_cycle;Max_cycle;Signal;HPM_P1;HPM_P2
2023/06/24 00:01:31;;;;;;;;;;;21.00;66.80;;;;;;6219796;23;19946;-87
2023/06/24 00:03:57;;;;;;;;;;;21.00;67.50;;;;;;6245570;23;19916;-89
2023/06/24 00:06:25;;;;;;;;;;;21.00;67.50;;;;;;6246608;22;20222;-80
2023/06/24 00:09:00;;;;;;;;;;;21.00;67.50;;;;;;6245376;22;19939;-88
2023/06/24 00:11:27;;;;;;;;;;;21.00;67.30;;;;;;6245109;23;19907;-80
2023/06/24 00:13:53;;;;;;;;;;;21.10;67.60;;;;;;6245721;23;19924;-79
2023/06/24 00:16:26;;;;;;;;;;;21.10;66.80;;;;;;6244700;23;19907;-80
2023/06/24 00:19:12;;;;;;;;;;;21.10;67.30;;;;;;6245715;22;19915;-90
2023/06/24 00:21:39;;;;;;;;;;;21.20;66.60;;;;;;6245249;23;20312;-88
2023/06/24 00:24:05;;;;;;;;;;;21.20;67.40;;;;;;6220627;23;19915;-79
2023/06/24 00:26:32;;;;;;;;;;;21.20;67.30;;;;;;6219496;23;19950;-79
2023/06/24 00:28:58;;;;;;;;;;;21.20;66.70;;;;;;6245360;23;19915;-79
2023/06/24 00:31:24;;;;;;;;;;;21.30;67.50;;;;;;6219575;23;19908;-88
2023/06/24 00:33:52;;;;;;;;;;;21.30;67.50;;;;;;6219892;23;20276;-87
2023/06/24 00:36:18;;;;;;;;;;;21.30;67.70;;;;;;6244899;23;19918;-89
2023/06/24 00:38:44;;;;;;;;;;;21.30;67.10;;;;;;6245315;23;19924;-89
2023/06/24 00:41:10;;;;;;;;;;;21.30;67.60;;;;;;6219767;23;19939;-88
2023/06/24 00:43:36;;;;;;;;;;;21.30;67.50;;;;;;6219614;23;19961;-89
2023/06/24 00:46:02;;;;;;;;;;;21.20;67.60;;;;;;6244862;23;19935;-85
2023/06/24 00:48:28;;;;;;;;;;;21.20;67.60;;;;;;6249488;22;20942;-80
2023/06/24 00:50:54;;;;;;;;;;;21.20;67.90;;;;;;6249818;22;19914;-79
2023/06/24 00:53:24;;;;;;;;;;;21.20;67.90;;;;;;6250077;22;20264;-79
2023/06/24 00:55:52;;;;;;;;;;;21.30;67.90;;;;;;6225619;22;19914;-89
2023/06/24 00:58:20;;;;;;;;;;;21.30;67.40;;;;;;6225339;22;20361;-91
2023/06/24 01:00:56;;;;;;;;;;;21.30;67.60;;;;;;6249877;22;19907;-89
2023/06/24 01:03:25;;;;;;;;;;;21.20;67.80;;;;;;6226856;22;20236;-89
2023/06/24 01:05:50;;;;;;;;;;;21.10;68.20;;;;;;6250161;22;20218;-89
2023/06/24 01:08:19;;;;;;;;;;;21.20;68.40;;;;;;6249871;22;19960;-79
2023/06/24 01:10:45;;;;;;;;;;;21.10;68.60;;;;;;6249717;22;19907;-88
2023/06/24 01:13:11;;;;;;;;;;;21.00;68.60;;;;;;6250408;22;19915;-89
2023/06/24 01:15:37;;;;;;;;;;;21.00;69.50;;;;;;6224376;22;20348;-87
2023/06/24 01:19:01;;;;;;;;;;;21.00;69.90;;;;;;6250223;22;19922;-88
2023/06/24 01:22:11;;;;;;;;;;;21.00;70.00;;;;;;6275644;22;20232;-79
2023/06/24 01:25:05;;;;;;;;;;;20.90;70.00;;;;;;6277308;22;19915;-88
2023/06/24 01:27:52;;;;;;;;;;;21.00;69.70;;;;;;6276788;22;19916;-79
2023/06/24 01:30:37;;;;;;;;;;;21.00;69.80;;;;;;6250316;22;19914;-88
2023/06/24 01:33:04;;;;;;;;;;;21.00;69.50;;;;;;6278238;22;20280;-87
2023/06/24 01:35:33;;;;;;;;;;;21.10;69.30;;;;;;6251774;22;19986;-80
2023/06/24 01:38:01;;;;;;;;;;;21.10;69.20;;;;;;6226490;22;19919;-79
2023/06/24 01:40:47;;;;;;;;;;;21.10;69.00;;;;;;6251335;22;19907;-80
2023/06/24 01:43:14;;;;;;;;;;;21.20;68.80;;;;;;6278970;22;19915;-79
2023/06/24 01:45:58;;;;;;;;;;;21.20;68.80;;;;;;6252343;22;19986;-79
2023/06/24 01:48:27;;;;;;;;;;;21.20;69.10;;;;;;6251716;22;19946;-84
2023/06/24 01:50:58;;;;;;;;;;;21.20;69.00;;;;;;6251324;22;20148;-79
2023/06/24 01:53:27;;;;;;;;;;;21.20;68.90;;;;;;6252255;22;19926;-79
2023/06/24 01:55:55;;;;;;;;;;;21.20;69.00;;;;;;6250834;22;20002;-79
2023/06/24 01:58:21;;;;;;;;;;;21.20;68.70;;;;;;6226106;22;20387;-87
2023/06/24 02:00:48;;;;;;;;;;;21.20;68.80;;;;;;6251253;22;19982;-78
2023/06/24 02:03:15;;;;;;;;;;;21.20;68.90;;;;;;6252181;22;19930;-80
2023/06/24 02:05:41;;;;;;;;;;;21.30;68.90;;;;;;6226169;22;19942;-79
2023/06/24 02:08:26;;;;;;;;;;;21.20;68.50;;;;;;6251865;22;19939;-79
2023/06/24 02:10:52;;;;;;;;;;;21.30;68.60;;;;;;6251397;22;19907;-79
2023/06/24 02:13:20;;;;;;;;;;;21.30;68.50;;;;;;6226436;22;20299;-79
2023/06/24 02:15:47;;;;;;;;;;;21.40;68.50;;;;;;6250918;22;19914;-79
2023/06/24 02:18:15;;;;;;;;;;;21.30;68.50;;;;;;6278561;22;19926;-81
2023/06/24 02:20:43;;;;;;;;;;;21.30;68.50;;;;;;6251351;22;19934;-86
2023/06/24 02:23:10;;;;;;;;;;;21.30;68.50;;;;;;6251840;22;19998;-79
2023/06/24 02:25:39;;;;;;;;;;;21.30;68.20;;;;;;6251190;22;19907;-86
2023/06/24 02:28:07;;;;;;;;;;;21.40;68.40;;;;;;6251632;22;20241;-79
2023/06/24 02:30:35;;;;;;;;;;;21.40;68.50;;;;;;6251068;22;19933;-86
2023/06/24 02:33:01;;;;;;;;;;;21.40;68.40;;;;;;6251582;22;19921;-79
2023/06/24 02:35:27;;;;;;;;;;;21.40;68.80;;;;;;6226115;22;20271;-83
2023/06/24 02:37:53;;;;;;;;;;;21.40;68.90;;;;;;6251253;22;19911;-87
2023/06/24 02:40:19;;;;;;;;;;;21.40;68.80;;;;;;6250930;22;19912;-83
2023/06/24 02:42:45;;;;;;;;;;;21.40;68.70;;;;;;6225970;22;20017;-86
2023/06/24 02:45:11;;;;;;;;;;;21.40;68.80;;;;;;6250264;22;19912;-84
2023/06/24 02:47:37;;;;;;;;;;;21.40;68.70;;;;;;6251264;22;19912;-79
2023/06/24 02:50:06;;;;;;;;;;;21.40;68.50;;;;;;6246162;22;20040;-79
2023/06/24 02:52:32;;;;;;;;;;;21.40;68.60;;;;;;6247537;22;19915;-80
2023/06/24 02:54:58;;;;;;;;;;;21.40;68.10;;;;;;6246334;23;19907;-79
2023/06/24 02:57:26;;;;;;;;;;;21.40;68.40;;;;;;6245767;23;20324;-80
2023/06/24 02:59:52;;;;;;;;;;;21.40;68.50;;;;;;6245910;23;19907;-79
2023/06/24 03:02:18;;;;;;;;;;;21.30;68.60;;;;;;6247177;22;19908;-80
2023/06/24 03:04:45;;;;;;;;;;;21.30;67.80;;;;;;6246086;23;20280;-90
2023/06/24 03:07:11;;;;;;;;;;;21.40;68.10;;;;;;6245768;22;19949;-79
2023/06/24 03:09:37;;;;;;;;;;;21.30;68.00;;;;;;6246020;23;19915;-83
2023/06/24 03:12:03;;;;;;;;;;;21.40;68.10;;;;;;6245336;23;19908;-79
2023/06/24 03:14:29;;;;;;;;;;;21.30;67.90;;;;;;6247424;22;19939;-79
2023/06/24 03:16:55;;;;;;;;;;;21.30;68.10;;;;;;6245419;23;19908;-79
2023/06/24 03:19:21;;;;;;;;;;;21.30;68.10;;;;;;6220946;23;20287;-88
2023/06/24 03:21:47;;;;;;;;;;;21.30;68.10;;;;;;6220099;23;19907;-87
2023/06/24 03:24:13;;;;;;;;;;;21.30;67.90;;;;;;6220970;23;19915;-79
2023/06/24 03:26:42;;;;;;;;;;;21.30;68.00;;;;;;6219799;23;19908;-84
2023/06/24 03:29:08;;;;;;;;;;;21.20;67.90;;;;;;6220944;23;20317;-88
2023/06/24 03:31:37;;;;;;;;;;;21.20;67.90;;;;;;6245272;23;19911;-85
2023/06/24 03:34:03;;;;;;;;;;;21.30;67.90;;;;;;6246024;23;19970;-79
2023/06/24 03:36:29;;;;;;;;;;;21.30;68.00;;;;;;6245014;23;19907;-79
2023/06/24 03:38:55;;;;;;;;;;;21.30;68.10;;;;;;6220615;23;19922;-79
2023/06/24 03:41:21;;;;;;;;;;;21.30;68.10;;;;;;6220119;23;19911;-88
2023/06/24 03:43:48;;;;;;;;;;;21.30;68.00;;;;;;6245813;23;19994;-79
2023/06/24 03:46:16;;;;;;;;;;;21.30;68.00;;;;;;6245495;23;19918;-88
2023/06/24 03:48:43;;;;;;;;;;;21.30;67.80;;;;;;6245253;22;20253;-88
2023/06/24 03:51:09;;;;;;;;;;;21.30;67.70;;;;;;6245301;23;20227;-87
2023/06/24 03:53:35;;;;;;;;;;;21.30;67.90;;;;;;6245965;22;19918;-88
2023/06/24 03:56:01;;;;;;;;;;;21.30;67.80;;;;;;6219635;23;20325;-83
2023/06/24 03:58:27;;;;;;;;;;;21.30;67.80;;;;;;6220313;23;19938;-80
2023/06/24 04:00:56;;;;;;;;;;;21.30;67.70;;;;;;6245077;23;19912;-84
2023/06/24 04:03:25;;;;;;;;;;;21.30;67.80;;;;;;6247022;22;20002;-86
2023/06/24 04:05:54;;;;;;;;;;;21.30;67.60;;;;;;6245609;22;20237;-79
2023/06/24 04:08:20;;;;;;;;;;;21.30;67.60;;;;;;6245476;22;19912;-87
2023/06/24 04:10:46;;;;;;;;;;;21.40;67.60;;;;;;6244969;23;20385;-79
2023/06/24 04:13:12;;;;;;;;;;;21.40;67.60;;;;;;6245503;22;19911;-87
2023/06/24 04:15:38;;;;;;;;;;;21.30;67.80;;;;;;6245318;23;19934;-79
2023/06/24 04:18:04;;;;;;;;;;;21.30;67.50;;;;;;6245417;23;20291;-80
2023/06/24 04:20:30;;;;;;;;;;;21.30;67.50;;;;;;6219700;23;20325;-80
2023/06/24 04:22:58;;;;;;;;;;;21.30;67.60;;;;;;6245305;22;19911;-79
2023/06/24 04:25:24;;;;;;;;;;;21.30;67.50;;;;;;6245226;22;19920;-79
2023/06/24 04:27:49;;;;;;;;;;;21.30;67.70;;;;;;6245136;23;19965;-89
2023/06/24 04:30:15;;;;;;;;;;;21.40;67.60;;;;;;6244777;23;19912;-79
2023/06/24 04:32:41;;;;;;;;;;;21.30;67.50;;;;;;6245093;23;19911;-80
2023/06/24 04:35:08;;;;;;;;;;;21.40;67.50;;;;;;6219592;23;19918;-86
2023/06/24 04:37:33;;;;;;;;;;;21.30;66.70;;;;;;6220502;23;20131;-90
2023/06/24 04:39:59;;;;;;;;;;;21.40;67.10;;;;;;6220069;23;19994;-86
2023/06/24 04:42:25;;;;;;;;;;;21.40;67.00;;;;;;6245124;23;19911;-89
2023/06/24 04:44:51;;;;;;;;;;;21.40;67.10;;;;;;6219832;23;19957;-80
2023/06/24 04:47:18;;;;;;;;;;;21.40;67.00;;;;;;6246053;22;19917;-80
2023/06/24 04:49:44;;;;;;;;;;;21.40;67.10;;;;;;6250077;22;19937;-79
2023/06/24 04:52:11;;;;;;;;;;;21.50;67.20;;;;;;6249310;22;19985;-79
2023/06/24 04:54:37;;;;;;;;;;;21.50;66.90;;;;;;6250431;22;19989;-89
2023/06/24 04:57:07;;;;;;;;;;;21.50;67.00;;;;;;6249743;22;19938;-80
2023/06/24 04:59:33;;;;;;;;;;;21.50;66.80;;;;;;6250240;22;19907;-89
2023/06/24 05:01:59;;;;;;;;;;;21.60;66.80;;;;;;6276814;22;19918;-79
2023/06/24 05:04:25;;;;;;;;;;;21.50;66.80;;;;;;6225260;22;20367;-79
2023/06/24 05:06:51;;;;;;;;;;;21.60;66.60;;;;;;6250032;22;19986;-91
2023/06/24 05:09:18;;;;;;;;;;;21.60;66.60;;;;;;6253163;22;19926;-92
2023/06/24 05:11:43;;;;;;;;;;;21.60;66.20;;;;;;6251409;22;19930;-81
2023/06/24 05:14:10;;;;;;;;;;;21.60;66.40;;;;;;6252902;22;19915;-92
2023/06/24 05:16:36;;;;;;;;;;;21.60;66.10;;;;;;6279155;22;20210;-85
2023/06/24 05:19:01;;;;;;;;;;;21.70;66.20;;;;;;6252121;22;19993;-89
2023/06/24 05:21:28;;;;;;;;;;;21.70;66.10;;;;;;6226733;22;19914;-89
2023/06/24 05:23:54;;;;;;;;;;;21.70;66.10;;;;;;6279913;22;19973;-84
2023/06/24 05:26:20;;;;;;;;;;;21.80;66.00;;;;;;6226768;22;19907;-83
2023/06/24 05:28:46;;;;;;;;;;;21.80;66.10;;;;;;6227387;22;19923;-84
2023/06/24 05:31:11;;;;;;;;;;;21.80;66.00;;;;;;6252307;22;20280;-89
2023/06/24 05:33:37;;;;;;;;;;;21.90;66.10;;;;;;6252699;22;19915;-83
2023/06/24 05:36:03;;;;;;;;;;;21.90;66.30;;;;;;6252276;22;19907;-82
2023/06/24 05:38:29;;;;;;;;;;;21.90;65.80;;;;;;6252811;22;19915;-89
2023/06/24 05:40:55;;;;;;;;;;;21.90;65.70;;;;;;6252336;22;19935;-84
2023/06/24 05:43:21;;;;;;;;;;;21.90;65.70;;;;;;6227277;22;19957;-95
2023/06/24 05:45:47;;;;;;;;;;;22.00;65.70;;;;;;6252301;22;19991;-90
2023/06/24 05:48:14;;;;;;;;;;;22.10;65.70;;;;;;6252642;22;19942;-93
2023/06/24 05:50:40;;;;;;;;;;;22.20;65.40;;;;;;6226758;22;19907;-83
2023/06/24 05:53:06;;;;;;;;;;;22.20;65.00;;;;;;6227168;22;19915;-92
2023/06/24 05:55:32;;;;;;;;;;;22.30;65.00;;;;;;6226450;22;19995;-83
2023/06/24 05:57:57;;;;;;;;;;;22.20;64.80;;;;;;6226969;22;19971;-85
2023/06/24 06:00:23;;;;;;;;;;;22.20;64.90;;;;;;6226767;22;19907;-87
2023/06/24 06:02:49;;;;;;;;;;;22.20;65.00;;;;;;6252613;22;19916;-85
2023/06/24 06:05:15;;;;;;;;;;;22.20;65.30;;;;;;6251863;22;19952;-89
2023/06/24 06:07:42;;;;;;;;;;;22.20;65.60;;;;;;6252476;22;19916;-83
2023/06/24 06:10:08;;;;;;;;;;;22.20;65.50;;;;;;6252346;22;19957;-89
2023/06/24 06:12:34;;;;;;;;;;;22.20;65.40;;;;;;6226978;22;20336;-90
2023/06/24 06:15:00;;;;;;;;;;;22.20;65.50;;;;;;6252300;22;19981;-87
2023/06/24 06:17:26;;;;;;;;;;;22.20;65.60;;;;;;6226170;22;19942;-89
2023/06/24 06:19:52;;;;;;;;;;;22.20;65.70;;;;;;6252848;22;19983;-84
2023/06/24 06:22:18;;;;;;;;;;;22.10;65.70;;;;;;6251855;22;19911;-85
2023/06/24 06:24:47;;;;;;;;;;;22.00;66.00;;;;;;6227539;22;19938;-85
2023/06/24 06:27:13;;;;;;;;;;;22.00;66.00;;;;;;6226481;22;19908;-88
2023/06/24 06:29:39;;;;;;;;;;;22.00;66.30;;;;;;6252429;22;20279;-84
2023/06/24 06:32:05;;;;;;;;;;;21.90;66.60;;;;;;6251710;22;19983;-91
2023/06/24 06:34:31;;;;;;;;;;;22.00;65.70;;;;;;6252110;22;19907;-86
2023/06/24 06:36:57;;;;;;;;;;;22.00;66.10;;;;;;6226343;22;19907;-89
2023/06/24 06:39:23;;;;;;;;;;;22.00;66.30;;;;;;6252367;22;19998;-83
2023/06/24 06:41:48;;;;;;;;;;;22.00;66.40;;;;;;6251682;22;20306;-89
2023/06/24 06:44:14;;;;;;;;;;;22.00;66.20;;;;;;6227121;22;19918;-85
2023/06/24 06:46:40;;;;;;;;;;;22.00;66.00;;;;;;6217181;22;19908;-84
2023/06/24 06:49:06;;;;;;;;;;;22.00;66.10;;;;;;6278873;22;19951;-93
2023/06/24 06:51:33;;;;;;;;;;;22.00;66.30;;;;;;6251935;22;20036;-84
2023/06/24 06:54:01;;;;;;;;;;;22.00;66.30;;;;;;6227089;22;19982;-83
2023/06/24 06:56:29;;;;;;;;;;;21.90;66.10;;;;;;6278493;22;19907;-86
2023/06/24 06:58:55;;;;;;;;;;;21.90;66.20;;;;;;6226767;22;19999;-92
2023/06/24 07:01:21;;;;;;;;;;;21.90;66.20;;;;;;6251771;22;19939;-89
2023/06/24 07:03:49;;;;;;;;;;;22.00;67.10;;;;;;6252044;22;19915;-85
2023/06/24 07:06:18;;;;;;;;;;;22.00;66.20;;;;;;6251329;22;20287;-85
2023/06/24 07:08:44;;;;;;;;;;;21.90;66.00;;;;;;6226674;22;19926;-85
2023/06/24 07:11:09;;;;;;;;;;;22.00;65.90;;;;;;6251547;22;20369;-85
2023/06/24 07:13:36;;;;;;;;;;;22.00;65.70;;;;;;6252043;22;19915;-86
2023/06/24 07:16:02;;;;;;;;;;;22.00;65.90;;;;;;6251487;22;19930;-90
2023/06/24 07:18:30;;;;;;;;;;;22.00;65.90;;;;;;6251911;22;19915;-87
2023/06/24 07:20:59;;;;;;;;;;;22.00;65.70;;;;;;6251768;22;20373;-92
2023/06/24 07:23:25;;;;;;;;;;;22.10;65.60;;;;;;6251738;22;20343;-85
2023/06/24 07:25:51;;;;;;;;;;;22.10;65.70;;;;;;6225868;22;19907;-89
2023/06/24 07:28:17;;;;;;;;;;;22.10;65.70;;;;;;6251540;22;19922;-85
2023/06/24 07:30:43;;;;;;;;;;;22.20;65.40;;;;;;6225914;22;19914;-89
2023/06/24 07:33:09;;;;;;;;;;;22.30;65.40;;;;;;6226125;22;19915;-90
2023/06/24 07:35:35;;;;;;;;;;;22.40;65.20;;;;;;6226306;22;19929;-89
2023/06/24 07:38:01;;;;;;;;;;;22.50;64.90;;;;;;6251652;22;20283;-91
2023/06/24 07:40:27;;;;;;;;;;;22.60;64.40;;;;;;6225788;22;19911;-88
2023/06/24 07:43:11;;;;;;;;;;;22.70;64.20;;;;;;6251613;22;19998;-85
2023/06/24 07:45:37;;;;;;;;;;;22.80;63.40;;;;;;6251192;22;20424;-90
2023/06/24 07:48:04;;;;;;;;;;;22.90;63.30;;;;;;6226286;22;20396;-86
2023/06/24 07:50:31;;;;;;;;;;;23.00;62.10;;;;;;6220381;23;19918;-87
2023/06/24 07:52:57;;;;;;;;;;;23.20;62.30;;;;;;6246176;22;19915;-89
2023/06/24 07:55:23;;;;;;;;;;;23.30;61.40;;;;;;6245882;23;19982;-89
2023/06/24 07:57:49;;;;;;;;;;;23.40;61.60;;;;;;6246158;22;19964;-85
2023/06/24 08:00:15;;;;;;;;;;;23.60;61.10;;;;;;6245993;23;19962;-85
2023/06/24 08:02:42;;;;;;;;;;;23.70;60.60;;;;;;6246248;23;19915;-90
2023/06/24 08:07:53;;;;;;;;;;;24.00;59.30;;;;;;6246529;22;20253;-90
2023/06/24 08:10:19;;;;;;;;;;;24.40;58.90;;;;;;6245896;23;19908;-88
2023/06/24 08:12:45;;;;;;;;;;;24.60;58.20;;;;;;6221002;23;20132;-87
2023/06/24 08:15:10;;;;;;;;;;;25.00;57.90;;;;;;6219069;23;19986;-86
2023/06/24 08:17:36;;;;;;;;;;;25.40;56.30;;;;;;6246203;22;19915;-92
2023/06/24 08:20:04;;;;;;;;;;;25.70;55.30;;;;;;6246389;23;19908;-91
2023/06/24 08:22:30;;;;;;;;;;;26.00;54.80;;;;;;6245926;22;19930;-91
2023/06/24 08:24:56;;;;;;;;;;;26.60;53.80;;;;;;6245943;22;19943;-91
2023/06/24 08:27:22;;;;;;;;;;;27.10;53.70;;;;;;6245439;23;19924;-90
2023/06/24 08:29:48;;;;;;;;;;;27.40;52.00;;;;;;6221050;23;19938;-91
2023/06/24 08:32:14;;;;;;;;;;;27.60;50.30;;;;;;6245275;22;20248;-91
2023/06/24 08:34:40;;;;;;;;;;;27.80;48.90;;;;;;6246085;23;20005;-86
2023/06/24 08:37:05;;;;;;;;;;;27.90;49.20;;;;;;6245408;23;19908;-92
2023/06/24 08:39:31;;;;;;;;;;;27.90;48.70;;;;;;6247385;22;19982;-85
2023/06/24 08:41:57;;;;;;;;;;;28.10;49.20;;;;;;6219539;23;20324;-91
2023/06/24 08:44:23;;;;;;;;;;;28.20;48.10;;;;;;6246194;23;19937;-86
2023/06/24 08:46:49;;;;;;;;;;;28.10;48.30;;;;;;6245279;23;19994;-88
2023/06/24 08:49:28;;;;;;;;;;;28.10;46.50;;;;;;6245629;22;19915;-87
2023/06/24 08:52:13;;;;;;;;;;;27.90;46.70;;;;;;6245335;22;19907;-94
2023/06/24 08:54:41;;;;;;;;;;;27.90;46.70;;;;;;6245815;22;19915;-85
2023/06/24 08:57:08;;;;;;;;;;;27.80;46.20;;;;;;6245392;22;19907;-91
2023/06/24 08:59:35;;;;;;;;;;;27.80;45.20;;;;;;6247228;22;19913;-91
2023/06/24 09:02:01;;;;;;;;;;;27.90;45.30;;;;;;6245205;22;19921;-86
2023/06/24 09:04:27;;;;;;;;;;;28.10;46.00;;;;;;6220782;23;19915;-91
2023/06/24 09:06:53;;;;;;;;;;;28.30;45.00;;;;;;6245315;23;19914;-84
2023/06/24 09:09:20;;;;;;;;;;;28.40;43.30;;;;;;6220523;23;19915;-85
2023/06/24 09:12:05;;;;;;;;;;;28.10;43.00;;;;;;6245123;23;19907;-86
2023/06/24 09:14:31;;;;;;;;;;;28.00;43.50;;;;;;6245633;23;19922;-93
2023/06/24 09:17:16;;;;;;;;;;;28.30;43.90;;;;;;6245177;23;19998;-86
2023/06/24 09:19:42;;;;;;;;;;;28.50;42.60;;;;;;6245667;23;20234;-87
2023/06/24 09:22:16;;;;;;;;;;;28.60;42.00;;;;;;6219526;23;19946;-88
2023/06/24 09:24:42;;;;;;;;;;;29.10;42.20;;;;;;6247176;22;19911;-86
2023/06/24 09:27:08;;;;;;;;;;;29.50;40.90;;;;;;6245011;23;19908;-85
2023/06/24 09:29:35;;;;;;;;;;;29.50;40.80;;;;;;6245633;23;19998;-84
2023/06/24 09:32:04;;;;;;;;;;;29.50;40.70;;;;;;6244866;23;19919;-84
2023/06/24 09:34:31;;;;;;;;;;;29.70;40.70;;;;;;6244437;23;20394;-86
2023/06/24 09:36:58;;;;;;;;;;;29.50;40.90;;;;;;6245089;23;19907;-86
2023/06/24 09:39:28;;;;;;;;;;;29.70;40.40;;;;;;6245580;22;19912;-86
2023/06/24 09:41:55;;;;;;;;;;;29.90;40.50;;;;;;6245281;23;19916;-93
2023/06/24 09:44:21;;;;;;;;;;;30.10;40.20;;;;;;6220460;23;19969;-84
2023/06/24 09:46:47;;;;;;;;;;;30.50;40.10;;;;;;6245125;23;19911;-85
2023/06/24 09:49:14;;;;;;;;;;;31.00;39.90;;;;;;6228322;23;19915;-85
2023/06/24 09:51:44;;;;;;;;;;;31.50;38.80;;;;;;6219851;23;19939;-93
2023/06/24 09:54:12;;;;;;;;;;;31.70;38.50;;;;;;6221407;23;20237;-94
2023/06/24 09:57:00;;;;;;;;;;;31.60;38.40;;;;;;6221805;23;19982;-84
2023/06/24 09:59:27;;;;;;;;;;;31.80;38.30;;;;;;6222198;23;19915;-85
2023/06/24 10:01:53;;;;;;;;;;;31.90;37.90;;;;;;6221562;23;19908;-86
2023/06/24 10:04:21;;;;;;;;;;;32.00;37.00;;;;;;6222531;23;19922;-84
2023/06/24 10:06:47;;;;;;;;;;;32.30;36.90;;;;;;6196858;23;19982;-85
2023/06/24 10:09:16;;;;;;;;;;;32.90;35.90;;;;;;6222533;23;19916;-86
2023/06/24 10:11:44;;;;;;;;;;;33.70;35.30;;;;;;6222090;23;19990;-90
2023/06/24 10:14:10;;;;;;;;;;;34.60;33.40;;;;;;6222137;23;19915;-96
2023/06/24 10:16:36;;;;;;;;;;;35.60;31.20;;;;;;6221957;23;19913;-85
2023/06/24 10:19:03;;;;;;;;;;;36.30;31.20;;;;;;6222089;23;20313;-92
2023/06/24 10:22:07;;;;;;;;;;;36.80;29.80;;;;;;6220805;23;19969;-84
2023/06/24 10:24:34;;;;;;;;;;;37.30;26.80;;;;;;6221798;23;19938;-95
2023/06/24 10:27:21;;;;;;;;;;;37.20;28.10;;;;;;6221246;23;19947;-84
2023/06/24 10:30:07;;;;;;;;;;;36.20;27.00;;;;;;6222044;23;19916;-87
2023/06/24 10:35:41;;;;;;;;;;;35.60;29.20;;;;;;6225495;23;19914;-86
2023/06/24 10:38:10;;;;;;;;;;;36.60;29.00;;;;;;6221557;23;19919;-86
2023/06/24 10:40:38;;;;;;;;;;;37.10;28.80;;;;;;6221383;23;20234;-87
2023/06/24 10:43:23;;;;;;;;;;;36.70;28.80;;;;;;6221618;23;19916;-89
2023/06/24 10:45:50;;;;;;;;;;;36.90;29.00;;;;;;6221116;23;19990;-89
2023/06/24 10:48:19;;;;;;;;;;;37.50;28.30;;;;;;6223171;22;19951;-88
2023/06/24 10:50:46;;;;;;;;;;;37.30;27.60;;;;;;6252349;22;20347;-88
2023/06/24 10:53:13;;;;;;;;;;;37.80;26.80;;;;;;6251857;22;19968;-87
2023/06/24 10:55:39;;;;;;;;;;;37.10;27.70;;;;;;6251293;22;19913;-87
2023/06/24 10:58:24;;;;;;;;;;;36.60;27.70;;;;;;6251914;22;19919;-87
2023/06/24 11:00:50;;;;;;;;;;;36.00;28.30;;;;;;6250729;22;19907;-86
2023/06/24 11:03:18;;;;;;;;;;;35.70;28.70;;;;;;6251311;22;19923;-86
2023/06/24 11:05:45;;;;;;;;;;;35.20;29.20;;;;;;6250700;22;19907;-86
2023/06/24 11:08:11;;;;;;;;;;;34.70;29.10;;;;;;6251605;22;20340;-85
2023/06/24 11:10:56;;;;;;;;;;;34.30;29.80;;;;;;6251139;22;19929;-85
2023/06/24 11:13:22;;;;;;;;;;;33.90;30.20;;;;;;6251613;22;19919;-86
2023/06/24 11:15:49;;;;;;;;;;;33.60;31.30;;;;;;6250832;22;19986;-84
2023/06/24 11:18:15;;;;;;;;;;;33.50;30.00;;;;;;6226297;22;20010;-88
2023/06/24 11:20:41;;;;;;;;;;;33.10;31.40;;;;;;6251367;22;19907;-87
2023/06/24 11:23:09;;;;;;;;;;;33.00;31.80;;;;;;6226326;22;19998;-87
2023/06/24 11:26:00;;;;;;;;;;;32.70;31.80;;;;;;6251796;22;20350;-91
2023/06/24 11:28:27;;;;;;;;;;;32.40;32.60;;;;;;6253113;22;19915;-89
2023/06/24 11:30:54;;;;;;;;;;;32.20;33.20;;;;;;6250732;22;19982;-87
2023/06/24 11:33:38;;;;;;;;;;;31.90;33.10;;;;;;6226067;22;19923;-90
2023/06/24 11:36:09;;;;;;;;;;;31.50;33.90;;;;;;6251154;22;19930;-88
2023/06/24 11:38:36;;;;;;;;;;;31.20;34.70;;;;;;6251773;22;19964;-86
2023/06/24 11:41:02;;;;;;;;;;;31.00;35.50;;;;;;6225673;22;19907;-85
2023/06/24 11:43:28;;;;;;;;;;;30.90;34.90;;;;;;6226196;22;19922;-88
2023/06/24 11:45:54;;;;;;;;;;;30.80;35.30;;;;;;6225800;22;19985;-86
2023/06/24 11:48:20;;;;;;;;;;;30.40;35.50;;;;;;6225506;22;19938;-88
2023/06/24 11:50:54;;;;;;;;;;;30.30;36.20;;;;;;6251056;22;19942;-85
2023/06/24 11:53:58;;;;;;;;;;;30.10;36.30;;;;;;6251613;22;19942;-86
2023/06/24 11:56:52;;;;;;;;;;;29.80;36.00;;;;;;6277650;22;19995;-86
2023/06/24 11:59:20;;;;;;;;;;;29.70;36.90;;;;;;6278813;22;19973;-85
2023/06/24 12:02:05;;;;;;;;;;;29.50;36.90;;;;;;6250894;22;19907;-89
2023/06/24 12:04:31;;;;;;;;;;;29.30;37.60;;;;;;6251348;22;19915;-85
2023/06/24 12:06:58;;;;;;;;;;;29.20;37.40;;;;;;6250826;22;19946;-85
2023/06/24 12:09:27;;;;;;;;;;;29.10;38.30;;;;;;6251621;22;19957;-86
2023/06/24 12:11:53;;;;;;;;;;;29.00;38.70;;;;;;6251101;22;19907;-92
2023/06/24 12:14:19;;;;;;;;;;;29.10;38.80;;;;;;6226314;22;19922;-86
2023/06/24 12:16:45;;;;;;;;;;;29.10;38.90;;;;;;6225139;22;19911;-85
2023/06/24 12:19:11;;;;;;;;;;;29.10;39.00;;;;;;6226061;22;19922;-92
2023/06/24 12:21:37;;;;;;;;;;;29.20;39.00;;;;;;6225675;22;19943;-86
2023/06/24 12:24:04;;;;;;;;;;;29.20;38.40;;;;;;6226154;22;19994;-91
2023/06/24 12:26:31;;;;;;;;;;;29.40;38.70;;;;;;6225455;22;19907;-86
2023/06/24 12:28:57;;;;;;;;;;;29.50;38.60;;;;;;6225931;22;19946;-89
2023/06/24 12:31:24;;;;;;;;;;;29.60;38.50;;;;;;6277520;22;20309;-88
2023/06/24 12:33:51;;;;;;;;;;;29.70;38.40;;;;;;6250952;22;19921;-87
2023/06/24 12:36:17;;;;;;;;;;;29.90;38.10;;;;;;6225366;22;19915;-93
2023/06/24 12:38:43;;;;;;;;;;;30.30;37.70;;;;;;6251268;22;19926;-86
2023/06/24 12:41:09;;;;;;;;;;;30.90;37.00;;;;;;6225083;22;19907;-93
2023/06/24 12:43:35;;;;;;;;;;;31.70;36.70;;;;;;6226044;22;19994;-90
2023/06/24 12:46:01;;;;;;;;;;;32.50;35.50;;;;;;6226027;22;19907;-88
2023/06/24 12:48:27;;;;;;;;;;;32.10;35.60;;;;;;6251035;22;19915;-94
2023/06/24 12:50:53;;;;;;;;;;;31.50;36.00;;;;;;6251199;22;19960;-88
2023/06/24 12:53:20;;;;;;;;;;;31.10;36.80;;;;;;6225497;22;19922;-86
2023/06/24 12:55:46;;;;;;;;;;;30.70;36.90;;;;;;6250320;22;19907;-86
2023/06/24 12:58:14;;;;;;;;;;;30.40;37.30;;;;;;6250911;22;19967;-88
2023/06/24 13:00:40;;;;;;;;;;;30.30;37.60;;;;;;6250379;22;19907;-88
2023/06/24 13:03:06;;;;;;;;;;;30.30;37.70;;;;;;6251269;22;19969;-93
2023/06/24 13:05:32;;;;;;;;;;;30.30;37.80;;;;;;6250665;22;20030;-91
2023/06/24 13:07:58;;;;;;;;;;;30.40;38.00;;;;;;6277747;22;19916;-88
2023/06/24 13:10:24;;;;;;;;;;;30.40;38.10;;;;;;6225241;22;19990;-87
2023/06/24 13:12:50;;;;;;;;;;;30.40;38.00;;;;;;6250937;22;19915;-92
2023/06/24 13:15:16;;;;;;;;;;;30.20;38.20;;;;;;6225158;22;19960;-88
2023/06/24 13:17:43;;;;;;;;;;;30.00;38.60;;;;;;6225596;22;19915;-92
2023/06/24 13:20:09;;;;;;;;;;;29.70;38.50;;;;;;6225414;22;19953;-92
2023/06/24 13:22:35;;;;;;;;;;;29.40;38.30;;;;;;6225675;22;19915;-88
2023/06/24 13:25:01;;;;;;;;;;;29.30;39.20;;;;;;6224850;22;19911;-89
2023/06/24 13:27:27;;;;;;;;;;;29.10;39.30;;;;;;6250277;22;19973;-90
2023/06/24 13:29:53;;;;;;;;;;;28.80;39.40;;;;;;6253027;22;20016;-89
2023/06/24 13:32:19;;;;;;;;;;;28.60;39.70;;;;;;6252230;22;19993;-92
2023/06/24 13:34:45;;;;;;;;;;;28.40;40.10;;;;;;6227859;22;19961;-88
2023/06/24 13:37:11;;;;;;;;;;;28.20;40.00;;;;;;6252344;22;20313;-92
2023/06/24 13:39:37;;;;;;;;;;;28.10;40.90;;;;;;6253088;22;19990;-87
2023/06/24 13:42:03;;;;;;;;;;;28.00;41.60;;;;;;6252023;22;20044;-88
2023/06/24 13:44:29;;;;;;;;;;;27.90;41.40;;;;;;6227334;22;19937;-89
2023/06/24 13:46:55;;;;;;;;;;;27.80;41.60;;;;;;6226878;22;19998;-93
2023/06/24 13:49:21;;;;;;;;;;;27.70;42.10;;;;;;6232185;23;19951;-88
2023/06/24 13:51:47;;;;;;;;;;;27.60;41.70;;;;;;6247157;23;19908;-89
2023/06/24 13:54:13;;;;;;;;;;;27.60;42.50;;;;;;6247865;22;20310;-84
2023/06/24 13:56:39;;;;;;;;;;;27.50;42.50;;;;;;6248326;23;19914;-89
2023/06/24 13:59:05;;;;;;;;;;;27.50;42.00;;;;;;6247700;22;19920;-90
2023/06/24 14:01:31;;;;;;;;;;;27.50;42.50;;;;;;6221476;23;19908;-89
2023/06/24 14:03:57;;;;;;;;;;;27.50;42.50;;;;;;6249230;22;19922;-83
2023/06/24 14:06:24;;;;;;;;;;;27.50;41.70;;;;;;6221728;23;19943;-90
2023/06/24 14:08:50;;;;;;;;;;;27.60;42.00;;;;;;6247534;22;19915;-89
2023/06/24 14:11:17;;;;;;;;;;;27.60;41.90;;;;;;6220786;23;19956;-92
2023/06/24 14:13:43;;;;;;;;;;;27.70;42.10;;;;;;6222267;23;19969;-89
2023/06/24 14:16:10;;;;;;;;;;;27.60;42.40;;;;;;6246635;23;19908;-90
2023/06/24 14:18:36;;;;;;;;;;;27.60;42.40;;;;;;6221905;23;19943;-89
2023/06/24 14:21:04;;;;;;;;;;;27.50;42.50;;;;;;6246577;23;19908;-85
2023/06/24 14:23:31;;;;;;;;;;;27.50;42.70;;;;;;6222198;23;19919;-91
2023/06/24 14:25:57;;;;;;;;;;;27.50;42.80;;;;;;6221526;23;19914;-90
2023/06/24 14:28:23;;;;;;;;;;;27.40;42.80;;;;;;6222011;23;20237;-89